createdAt,value
2022-09-12T00:01:11.687Z,6.65
2022-09-12T00:03:39.967Z,5.95
2022-09-12T00:06:12.357Z,6.07
2022-09-12T00:08:38.697Z,5.97
2022-09-12T00:11:06.685Z,5.57
2022-09-12T00:13:33.039Z,5.07
2022-09-12T00:15:59.332Z,6.28
2022-09-12T00:18:25.748Z,5.18
2022-09-12T00:20:52.033Z,4.82
2022-09-12T00:23:18.529Z,6.93
2022-09-12T00:25:45.773Z,5.55
2022-09-12T00:28:12.721Z,6.38
2022-09-12T00:30:46.858Z,5.68
2022-09-12T00:33:14.164Z,6.38
2022-09-12T00:35:53.004Z,5.30
2022-09-12T00:38:21.428Z,5.47
2022-09-12T00:40:48.825Z,5.72
2022-09-12T00:43:30.480Z,6.03
2022-09-12T00:45:57.848Z,5.88
2022-09-12T00:48:29.805Z,6.40
2022-09-12T00:50:56.369Z,6.70
2022-09-12T00:53:22.717Z,5.28
2022-09-12T00:55:50.328Z,5.60
2022-09-12T00:58:16.662Z,6.43
2022-09-12T01:00:42.967Z,6.03
2022-09-12T01:03:10.839Z,5.93
2022-09-12T01:05:39.502Z,4.82
2022-09-12T01:08:06.525Z,5.65
2022-09-12T01:10:34.856Z,5.57
2022-09-12T01:13:01.348Z,5.50
2022-09-12T01:15:27.708Z,5.32
2022-09-12T01:18:00.397Z,6.53
2022-09-12T01:20:29.473Z,7.53
2022-09-12T01:23:03.378Z,5.93
2022-09-12T01:25:50.039Z,5.78
2022-09-12T01:28:16.321Z,5.78
2022-09-12T01:30:45.687Z,5.28
2022-09-12T01:33:18.244Z,5.40
2022-09-12T01:36:03.330Z,6.55
2022-09-12T01:38:36.403Z,5.55
2022-09-12T01:41:25.482Z,6.53
2022-09-12T01:43:58.192Z,6.32
2022-09-12T01:46:31.123Z,5.90
2022-09-12T01:49:02.973Z,7.75
2022-09-12T01:51:35.849Z,6.53
2022-09-12T01:54:06.925Z,6.65
2022-09-12T01:56:35.500Z,5.28
2022-09-12T01:59:05.186Z,5.78
2022-09-12T02:01:33.857Z,5.10
2022-09-12T02:04:10.053Z,6.22
2022-09-12T02:06:40.148Z,5.55
2022-09-12T02:09:12.328Z,5.63
2022-09-12T02:11:40.098Z,5.90
2022-09-12T02:14:09.722Z,6.50
2022-09-12T02:16:36.035Z,5.32
2022-09-12T02:19:22.980Z,5.57
2022-09-12T02:21:54.376Z,4.90
2022-09-12T02:24:22.557Z,6.22
2022-09-12T02:26:57.584Z,6.03
2022-09-12T02:29:24.081Z,6.60
2022-09-12T02:31:54.959Z,5.65
2022-09-12T02:34:40.056Z,5.68
2022-09-12T02:37:06.307Z,4.68
2022-09-12T02:39:32.757Z,5.25
2022-09-12T02:42:00.923Z,6.53
2022-09-12T02:44:28.279Z,5.22
2022-09-12T02:46:56.671Z,5.10
2022-09-12T02:49:23.048Z,6.35
2022-09-12T02:51:49.554Z,5.72
2022-09-12T02:54:16.892Z,5.80
2022-09-12T02:56:44.235Z,6.40
2022-09-12T02:59:12.471Z,6.10
2022-09-12T03:02:00.055Z,5.07
2022-09-12T03:04:53.228Z,5.47
2022-09-12T03:07:38.296Z,5.55
2022-09-12T03:10:42.103Z,5.80
2022-09-12T03:13:26.439Z,5.15
2022-09-12T03:16:16.997Z,5.68
2022-09-12T03:18:50.460Z,9.05
2022-09-12T03:21:22.373Z,6.20
2022-09-12T03:23:51.682Z,6.43
2022-09-12T03:26:47.261Z,5.20
2022-09-12T03:29:13.814Z,5.85
2022-09-12T03:31:47.901Z,5.72
2022-09-12T03:34:14.328Z,5.60
2022-09-12T03:36:41.660Z,5.72
2022-09-12T03:39:07.993Z,6.65
2022-09-12T03:41:34.298Z,6.40
2022-09-12T03:44:00.559Z,5.70
2022-09-12T03:46:26.826Z,5.88
2022-09-12T03:48:53.199Z,6.70
2022-09-12T03:51:19.479Z,6.32
2022-09-12T03:53:45.746Z,5.60
2022-09-12T03:56:12.603Z,5.97
2022-09-12T03:58:39.418Z,7.00
2022-09-12T04:01:12.231Z,6.32
2022-09-12T04:03:40.010Z,5.93
2022-09-12T04:06:06.944Z,4.97
2022-09-12T04:08:33.751Z,6.22
2022-09-12T04:11:04.721Z,5.85
2022-09-12T04:13:31.409Z,6.22
2022-09-12T04:15:58.614Z,7.43
2022-09-12T04:18:25.323Z,5.18
2022-09-12T04:20:51.591Z,7.07
2022-09-12T04:23:17.872Z,6.55
2022-09-12T04:25:44.198Z,5.05
2022-09-12T04:28:10.489Z,6.13
2022-09-12T04:30:36.819Z,5.55
2022-09-12T04:33:07.903Z,5.93
2022-09-12T04:35:35.277Z,5.45
2022-09-12T04:38:01.996Z,4.80
2022-09-12T04:40:29.595Z,5.93
2022-09-12T04:42:56.116Z,5.68
2022-09-12T04:45:22.786Z,4.63
2022-09-12T04:47:49.036Z,6.22
2022-09-12T04:50:15.332Z,4.38
2022-09-12T04:52:41.835Z,5.68
2022-09-12T04:55:08.520Z,4.95
2022-09-12T04:57:38.066Z,5.03
2022-09-12T05:00:07.306Z,4.50
2022-09-12T05:02:34.498Z,5.68
2022-09-12T05:05:01.006Z,5.95
2022-09-12T05:07:27.275Z,6.38
2022-09-12T05:09:53.600Z,6.95
2022-09-12T05:12:19.943Z,17.27
2022-09-12T05:14:46.442Z,8.07
2022-09-12T05:17:12.800Z,7.53
2022-09-12T05:19:39.132Z,7.82
2022-09-12T05:22:06.837Z,5.88
2022-09-12T05:24:33.168Z,6.30
2022-09-12T05:26:59.631Z,6.97
2022-09-12T05:29:26.163Z,5.95
2022-09-12T05:31:53.335Z,5.45
2022-09-12T05:34:20.256Z,6.00
2022-09-12T05:36:46.972Z,6.75
2022-09-12T05:39:13.371Z,6.95
2022-09-12T05:41:39.797Z,7.47
2022-09-12T05:44:07.196Z,5.70
2022-09-12T05:46:37.968Z,8.10
2022-09-12T05:49:05.691Z,6.22
2022-09-12T05:51:33.396Z,6.25
2022-09-12T05:54:01.396Z,7.68
2022-09-12T05:56:28.840Z,7.18
2022-09-12T05:58:56.583Z,8.07
2022-09-12T06:01:22.946Z,8.43
2022-09-12T06:03:51.491Z,6.90
2022-09-12T06:06:19.257Z,8.60
2022-09-12T06:08:46.999Z,6.95
2022-09-12T06:11:14.979Z,9.48
2022-09-12T06:13:42.263Z,8.73
2022-09-12T06:16:10.387Z,7.38
2022-09-12T06:18:37.336Z,9.23
2022-09-12T06:21:13.043Z,14.20
2022-09-12T06:23:39.770Z,7.43
2022-09-12T06:26:07.387Z,9.40
2022-09-12T06:28:38.038Z,7.82
2022-09-12T06:31:05.963Z,6.85
2022-09-12T06:33:33.943Z,7.63
2022-09-12T06:36:06.902Z,8.63
2022-09-12T06:38:35.561Z,6.72
2022-09-12T06:41:06.654Z,6.35
2022-09-12T06:43:33.368Z,9.20
2022-09-12T06:45:59.921Z,8.68
2022-09-12T06:48:26.537Z,7.75
2022-09-12T06:50:57.756Z,6.35
2022-09-12T06:53:24.106Z,6.45
2022-09-12T06:55:57.853Z,7.03
2022-09-12T06:58:24.703Z,8.95
2022-09-12T07:00:54.014Z,8.38
2022-09-12T07:03:23.487Z,7.10
2022-09-12T07:05:49.797Z,8.32
2022-09-12T07:08:16.135Z,8.65
2022-09-12T07:10:42.386Z,6.93
2022-09-12T07:13:08.901Z,6.63
2022-09-12T07:15:36.216Z,8.23
2022-09-12T07:18:03.013Z,7.65
2022-09-12T07:20:29.697Z,8.38
2022-09-12T07:22:58.700Z,7.40
2022-09-12T07:25:25.037Z,7.18
2022-09-12T07:27:52.763Z,7.38
2022-09-12T07:30:19.190Z,7.47
2022-09-12T07:32:45.509Z,7.45
2022-09-12T07:35:11.807Z,6.65
2022-09-12T07:37:38.323Z,8.52
2022-09-12T07:40:04.831Z,6.75
2022-09-12T07:42:31.372Z,8.13
2022-09-12T07:44:57.857Z,6.88
2022-09-12T07:47:24.108Z,6.22
2022-09-12T07:49:50.482Z,6.10
2022-09-12T07:52:16.790Z,7.55
2022-09-12T07:54:43.105Z,7.13
2022-09-12T07:57:09.400Z,6.97
2022-09-12T07:59:52.074Z,8.32
2022-09-12T08:02:19.716Z,5.93
2022-09-12T08:04:46.960Z,6.45
2022-09-12T08:07:13.249Z,7.40
2022-09-12T08:09:39.615Z,6.10
2022-09-12T08:12:06.115Z,6.63
2022-09-12T08:14:34.457Z,7.10
2022-09-12T08:17:00.847Z,8.15
2022-09-12T08:19:27.153Z,6.93
2022-09-12T08:21:53.486Z,8.32
2022-09-12T08:24:20.055Z,6.35
2022-09-12T08:26:46.713Z,7.30
2022-09-12T08:29:13.096Z,6.53
2022-09-12T08:31:41.406Z,7.20
2022-09-12T08:34:08.175Z,5.72
2022-09-12T08:36:34.758Z,5.47
2022-09-12T08:39:05.984Z,6.75
2022-09-12T08:41:35.433Z,8.43
2022-09-12T08:44:17.051Z,6.10
2022-09-12T08:46:43.448Z,5.53
2022-09-12T08:49:11.988Z,6.22
2022-09-12T08:51:38.957Z,6.63
2022-09-12T08:54:19.370Z,4.50
2022-09-12T08:56:45.958Z,8.98
2022-09-12T08:59:13.671Z,5.70
2022-09-12T09:01:44.382Z,5.32
2022-09-12T09:04:10.857Z,6.25
2022-09-12T09:06:47.581Z,10.10
2022-09-12T09:09:23.396Z,6.82
2022-09-12T09:11:57.496Z,5.50
2022-09-12T09:14:45.537Z,6.45
2022-09-12T09:17:14.386Z,8.35
2022-09-12T09:19:42.366Z,8.43
2022-09-12T09:22:18.828Z,5.65
2022-09-12T09:24:50.351Z,7.82
2022-09-12T09:27:40.013Z,4.70
2022-09-12T09:30:17.960Z,5.13
2022-09-12T09:32:45.979Z,7.57
2022-09-12T09:35:16.021Z,5.78
2022-09-12T09:37:44.234Z,7.43
2022-09-12T09:40:28.873Z,7.45
2022-09-12T09:43:01.189Z,6.28
2022-09-12T09:45:30.967Z,6.60
2022-09-12T09:47:58.340Z,6.35
2022-09-12T09:50:24.624Z,8.85
2022-09-12T09:52:51.972Z,6.20
2022-09-12T09:55:21.024Z,6.40
2022-09-12T09:57:47.378Z,12.02
2022-09-12T10:00:26.691Z,8.52
2022-09-12T10:03:00.322Z,5.93
2022-09-12T10:05:28.517Z,7.53
2022-09-12T10:07:55.004Z,7.20
2022-09-12T10:10:24.645Z,10.95
2022-09-12T10:12:51.495Z,9.98
2022-09-12T10:15:22.724Z,9.80
2022-09-12T10:17:50.593Z,5.43
2022-09-12T10:20:37.715Z,4.65
2022-09-12T10:23:23.158Z,7.45
2022-09-12T10:25:53.886Z,7.90
2022-09-12T10:28:23.392Z,5.18
2022-09-12T10:30:56.225Z,5.40
2022-09-12T10:33:23.873Z,5.50
2022-09-12T10:35:50.530Z,7.85
2022-09-12T10:38:24.761Z,11.00
2022-09-12T10:40:58.067Z,6.00
2022-09-12T10:43:27.460Z,7.43
2022-09-12T10:45:58.493Z,6.25
2022-09-12T10:48:32.044Z,6.30
2022-09-12T10:50:59.301Z,6.82
2022-09-12T10:53:29.953Z,6.75
2022-09-12T10:55:58.997Z,7.70
2022-09-12T10:58:28.557Z,6.20
2022-09-12T11:01:00.510Z,5.68
2022-09-12T11:03:41.686Z,6.43
2022-09-12T11:06:10.286Z,4.63
2022-09-12T11:08:43.018Z,5.32
2022-09-12T11:11:25.106Z,5.13
2022-09-12T11:14:10.638Z,4.20
2022-09-12T11:16:42.824Z,5.38
2022-09-12T11:19:25.022Z,4.55
2022-09-12T11:21:58.248Z,4.43
2022-09-12T11:24:33.936Z,6.53
2022-09-12T11:27:06.586Z,5.03
2022-09-12T11:29:48.394Z,8.40
2022-09-12T11:32:20.914Z,6.55
2022-09-12T11:35:06.093Z,4.63
2022-09-12T11:37:51.505Z,4.72
2022-09-12T11:40:21.635Z,5.65
2022-09-12T11:42:49.855Z,4.40
2022-09-12T11:45:19.910Z,4.82
2022-09-12T11:47:49.675Z,5.03
2022-09-12T11:50:21.572Z,3.85
2022-09-12T11:52:48.365Z,4.00
2022-09-12T11:55:21.175Z,4.28
2022-09-12T11:57:54.112Z,4.20
2022-09-12T12:00:22.010Z,4.30
2022-09-12T12:02:51.723Z,3.90
2022-09-12T12:05:24.386Z,3.30
2022-09-12T12:07:59.057Z,4.20
2022-09-12T12:10:34.804Z,4.50
2022-09-12T12:13:03.166Z,5.18
2022-09-12T12:15:31.225Z,4.60
2022-09-12T12:18:04.080Z,4.25
2022-09-12T12:20:33.346Z,3.28
2022-09-12T12:23:00.000Z,3.22
2022-09-12T12:25:38.871Z,4.68
2022-09-12T12:28:07.051Z,6.38
2022-09-12T12:30:35.481Z,3.58
2022-09-12T12:33:13.442Z,3.80
2022-09-12T12:35:49.908Z,3.38
2022-09-12T12:38:33.403Z,3.90
2022-09-12T12:41:18.795Z,4.45
2022-09-12T12:43:49.812Z,3.50
2022-09-12T12:46:21.072Z,3.30
2022-09-12T12:49:06.988Z,3.30
2022-09-12T12:51:40.839Z,3.40
2022-09-12T12:54:27.479Z,3.95
2022-09-12T12:57:12.582Z,3.65
2022-09-12T12:59:49.962Z,3.85
2022-09-12T13:02:25.690Z,3.38
2022-09-12T13:04:52.734Z,3.35
2022-09-12T13:07:27.982Z,2.75
2022-09-12T13:09:55.015Z,3.80
2022-09-12T13:12:26.799Z,3.20
2022-09-12T13:14:58.482Z,3.05
2022-09-12T13:17:28.032Z,4.82
2022-09-12T13:20:26.241Z,2.55
2022-09-12T13:22:51.965Z,2.67
2022-09-12T13:25:24.017Z,3.50
2022-09-12T13:28:17.016Z,2.17
2022-09-12T13:30:44.969Z,3.72
2022-09-12T13:33:23.729Z,2.70
2022-09-12T13:35:58.322Z,3.22
2022-09-12T13:38:43.761Z,2.78
2022-09-12T13:41:28.899Z,2.57
2022-09-12T13:43:56.371Z,3.33
2022-09-12T13:46:28.201Z,3.38
2022-09-12T13:48:54.728Z,3.17
2022-09-12T13:51:25.451Z,3.03
2022-09-12T13:53:53.396Z,2.83
2022-09-12T13:56:20.277Z,2.75
2022-09-12T13:58:57.622Z,3.42
2022-09-12T14:01:25.357Z,2.70
2022-09-12T14:04:11.548Z,3.30
2022-09-12T14:06:49.670Z,2.53
2022-09-12T14:09:24.993Z,2.63
2022-09-12T14:11:52.125Z,2.85
2022-09-12T14:14:20.648Z,3.75
2022-09-12T14:16:47.322Z,3.03
2022-09-12T14:19:16.433Z,2.80
2022-09-12T14:21:43.779Z,2.88
2022-09-12T14:24:12.743Z,3.33
2022-09-12T14:26:41.633Z,3.15
2022-09-12T14:29:09.202Z,4.80
2022-09-12T14:31:37.194Z,2.80
2022-09-12T14:34:11.549Z,2.60
2022-09-12T14:36:50.491Z,2.55
2022-09-12T14:39:16.836Z,2.58
2022-09-12T14:41:43.701Z,2.60
2022-09-12T14:44:15.396Z,2.65
2022-09-12T14:46:42.294Z,3.28
2022-09-12T14:49:10.854Z,2.35
2022-09-12T14:51:39.426Z,2.33
2022-09-12T14:54:05.877Z,3.28
2022-09-12T14:56:38.649Z,4.10
2022-09-12T14:59:26.153Z,2.85
2022-09-12T15:02:13.056Z,2.80
2022-09-12T15:04:59.586Z,2.00
2022-09-12T15:07:25.945Z,2.92
2022-09-12T15:09:52.993Z,2.90
2022-09-12T15:12:19.345Z,2.40
2022-09-12T15:14:45.607Z,2.45
2022-09-12T15:17:13.537Z,3.38
2022-09-12T15:19:39.945Z,1.95
2022-09-12T15:22:06.578Z,2.10
2022-09-12T15:24:32.957Z,2.80
2022-09-12T15:26:59.394Z,3.00
2022-09-12T15:29:25.909Z,2.10
2022-09-12T15:31:52.521Z,2.13
2022-09-12T15:34:19.649Z,2.58
2022-09-12T15:36:45.968Z,2.33
2022-09-12T15:39:12.409Z,2.30
2022-09-12T15:41:38.771Z,1.98
2022-09-12T15:44:05.396Z,2.28
2022-09-12T15:46:31.769Z,2.85
2022-09-12T15:48:58.198Z,2.30
2022-09-12T15:51:24.823Z,2.60
2022-09-12T15:53:51.353Z,2.20
2022-09-12T15:56:18.427Z,2.50
2022-09-12T15:58:57.787Z,1.98
2022-09-12T16:01:27.473Z,2.60
2022-09-12T16:03:54.201Z,2.35
2022-09-12T16:06:20.717Z,3.17
2022-09-12T16:08:47.240Z,2.03
2022-09-12T16:11:32.891Z,2.83
2022-09-12T16:14:00.127Z,2.65
2022-09-12T16:16:26.520Z,2.63
2022-09-12T16:18:52.971Z,3.10
2022-09-12T16:21:19.312Z,2.42
2022-09-12T16:23:46.156Z,2.03
2022-09-12T16:26:12.970Z,3.35
2022-09-12T16:28:39.888Z,2.22
2022-09-12T16:31:06.936Z,2.17
2022-09-12T16:33:33.717Z,3.28
2022-09-12T16:36:04.527Z,2.08
2022-09-12T16:38:31.491Z,2.47
2022-09-12T16:41:04.332Z,2.25
2022-09-12T16:43:31.908Z,2.20
2022-09-12T16:46:05.687Z,2.20
2022-09-12T16:48:32.672Z,2.55
2022-09-12T16:51:01.915Z,1.95
2022-09-12T16:53:35.330Z,1.42
2022-09-12T16:56:02.073Z,2.10
2022-09-12T16:58:31.622Z,2.30
2022-09-12T17:01:05.519Z,2.70
2022-09-12T17:03:32.322Z,2.15
2022-09-12T17:06:03.024Z,2.42
2022-09-12T17:08:29.551Z,1.95
2022-09-12T17:11:00.149Z,2.65
2022-09-12T17:13:36.686Z,1.80
2022-09-12T17:16:12.897Z,2.22
2022-09-12T17:18:39.516Z,2.30
2022-09-12T17:21:06.785Z,2.33
2022-09-12T17:23:35.211Z,2.53
2022-09-12T17:26:02.204Z,2.95
2022-09-12T17:28:28.595Z,2.22
2022-09-12T17:30:57.418Z,1.80
2022-09-12T17:33:24.254Z,2.75
2022-09-12T17:35:50.644Z,2.28
2022-09-12T17:38:20.147Z,2.17
2022-09-12T17:40:59.498Z,2.40
2022-09-12T17:43:26.224Z,2.40
2022-09-12T17:45:56.628Z,3.85
2022-09-12T17:48:25.432Z,2.50
2022-09-12T17:50:54.185Z,3.10
2022-09-12T17:53:20.700Z,5.80
2022-09-12T17:55:51.443Z,7.63
2022-09-12T17:58:20.311Z,8.32
2022-09-12T18:01:19.117Z,6.72
2022-09-12T18:03:46.671Z,8.20
2022-09-12T18:06:14.450Z,7.72
2022-09-12T18:08:40.985Z,6.95
2022-09-12T18:11:07.525Z,9.02
2022-09-12T18:13:34.451Z,7.50
2022-09-12T18:16:08.275Z,8.32
2022-09-12T18:18:34.998Z,7.53
2022-09-12T18:21:01.635Z,9.07
2022-09-12T18:23:27.938Z,7.32
2022-09-12T18:26:01.876Z,7.55
2022-09-12T18:28:28.348Z,5.78
2022-09-12T18:30:54.863Z,6.30
2022-09-12T18:33:24.044Z,5.00
2022-09-12T18:35:50.758Z,8.13
2022-09-12T18:38:17.347Z,7.47
2022-09-12T18:40:43.605Z,6.85
2022-09-12T18:43:09.931Z,5.30
2022-09-12T18:45:36.344Z,7.57
2022-09-12T18:48:03.353Z,7.75
2022-09-12T18:50:30.239Z,10.98
2022-09-12T18:52:59.765Z,6.28
2022-09-12T18:55:26.346Z,7.00
2022-09-12T18:57:52.610Z,8.18
2022-09-12T19:00:19.048Z,5.10
2022-09-12T19:02:45.381Z,8.48
2022-09-12T19:05:12.754Z,6.95
2022-09-12T19:07:38.999Z,6.28
2022-09-12T19:10:05.605Z,8.55
2022-09-12T19:12:32.030Z,10.38
2022-09-12T19:14:58.278Z,6.57
2022-09-12T19:17:24.497Z,11.45
2022-09-12T19:19:51.534Z,8.25
2022-09-12T19:22:17.854Z,7.88
2022-09-12T19:24:44.099Z,10.38
2022-09-12T19:27:12.885Z,7.63
2022-09-12T19:29:39.173Z,7.75
2022-09-12T19:32:05.431Z,6.90
2022-09-12T19:34:31.780Z,9.82
2022-09-12T19:36:59.344Z,6.68
2022-09-12T19:39:25.676Z,8.65
2022-09-12T19:41:51.952Z,9.02
2022-09-12T19:44:19.243Z,11.32
2022-09-12T19:46:45.702Z,9.23
2022-09-12T19:49:13.018Z,7.00
2022-09-12T19:51:39.467Z,11.30
2022-09-12T19:54:06.140Z,7.68
2022-09-12T19:56:32.569Z,9.63
2022-09-12T19:58:58.970Z,9.13
2022-09-12T20:01:28.359Z,6.65
2022-09-12T20:03:55.233Z,7.65
2022-09-12T20:06:21.669Z,7.63
2022-09-12T20:08:48.249Z,7.63
2022-09-12T20:11:16.343Z,7.40
2022-09-12T20:13:43.196Z,9.40
2022-09-12T20:16:10.813Z,7.10
2022-09-12T20:18:40.361Z,7.88
2022-09-12T20:21:07.725Z,8.07
2022-09-12T20:23:34.044Z,7.03
2022-09-12T20:26:00.980Z,6.22
2022-09-12T20:28:27.388Z,8.82
2022-09-12T20:30:53.883Z,7.82
2022-09-12T20:33:20.254Z,8.20
2022-09-12T20:35:46.706Z,7.35
2022-09-12T20:38:13.207Z,6.70
2022-09-12T20:40:39.557Z,6.05
2022-09-12T20:43:05.814Z,6.85
2022-09-12T20:45:32.090Z,7.47
2022-09-12T20:47:58.357Z,7.72
2022-09-12T20:50:24.647Z,5.38
2022-09-12T20:52:51.043Z,7.35
2022-09-12T20:55:17.559Z,5.22
2022-09-12T20:57:43.891Z,6.72
2022-09-12T21:00:10.997Z,5.93
2022-09-12T21:02:37.760Z,9.10
2022-09-12T21:05:04.350Z,6.68
2022-09-12T21:07:30.764Z,6.68
2022-09-12T21:09:57.201Z,6.53
2022-09-12T21:12:23.577Z,6.20
2022-09-12T21:14:49.875Z,5.43
2022-09-12T21:17:16.147Z,5.70
2022-09-12T21:19:45.344Z,7.82
2022-09-12T21:22:11.803Z,5.88
2022-09-12T21:24:38.246Z,7.38
2022-09-12T21:27:05.004Z,7.00
2022-09-12T21:29:31.249Z,5.63
2022-09-12T21:31:57.524Z,5.30
2022-09-12T21:34:23.832Z,5.60
2022-09-12T21:36:50.116Z,6.40
2022-09-12T21:39:16.440Z,6.85
2022-09-12T21:41:42.880Z,5.93
2022-09-12T21:44:09.183Z,5.57
2022-09-12T21:46:35.765Z,6.15
2022-09-12T21:49:02.718Z,4.88
2022-09-12T21:51:29.045Z,8.65
2022-09-12T21:53:55.286Z,6.47
2022-09-12T21:56:21.712Z,6.10
2022-09-12T21:58:48.144Z,6.57
2022-09-12T22:01:14.645Z,4.28
2022-09-12T22:03:43.016Z,6.25
2022-09-12T22:06:09.349Z,6.75
2022-09-12T22:08:37.204Z,5.32
2022-09-12T22:11:08.046Z,5.38
2022-09-12T22:13:34.499Z,5.13
2022-09-12T22:16:03.692Z,6.68
2022-09-12T22:18:32.000Z,6.40
2022-09-12T22:20:59.057Z,6.05
2022-09-12T22:23:44.329Z,8.30
2022-09-12T22:26:10.984Z,6.18
2022-09-12T22:28:38.328Z,5.82
2022-09-12T22:31:06.512Z,5.20
2022-09-12T22:33:32.916Z,4.90
2022-09-12T22:35:59.677Z,6.38
2022-09-12T22:38:25.957Z,5.18
2022-09-12T22:40:52.529Z,5.18
2022-09-12T22:43:18.811Z,4.70
2022-09-12T22:45:45.088Z,5.22
2022-09-12T22:48:11.420Z,6.57
2022-09-12T22:50:37.722Z,5.97
2022-09-12T22:53:04.095Z,6.65
2022-09-12T22:55:30.574Z,6.80
2022-09-12T22:57:56.840Z,6.57
2022-09-12T23:00:23.848Z,5.53
2022-09-12T23:02:50.334Z,7.63
2022-09-12T23:05:16.955Z,6.55
2022-09-12T23:07:43.164Z,6.60
2022-09-12T23:10:10.622Z,4.65
2022-09-12T23:12:36.886Z,4.75
2022-09-12T23:15:03.588Z,5.97
2022-09-12T23:17:30.022Z,5.78
2022-09-12T23:19:56.315Z,6.63
2022-09-12T23:22:22.556Z,5.55
2022-09-12T23:24:49.101Z,5.20
2022-09-12T23:27:15.421Z,4.93
2022-09-12T23:29:41.716Z,6.40
2022-09-12T23:32:08.212Z,5.13
2022-09-12T23:34:34.555Z,4.68
2022-09-12T23:37:00.795Z,5.60
2022-09-12T23:39:27.066Z,6.20
2022-09-12T23:41:53.304Z,6.97
2022-09-12T23:44:19.537Z,4.97
2022-09-12T23:46:45.773Z,5.32
2022-09-12T23:49:12.002Z,5.32
2022-09-12T23:51:38.218Z,9.30
2022-09-12T23:54:04.464Z,4.88
2022-09-12T23:56:30.738Z,4.60
2022-09-12T23:58:56.947Z,4.35
